Kilmarnock, Virginia
Current Conditions -  °F | °C
As of 1:35 AM on Sunday 21 Dec 2014 (Local Time) from KW75 Reporting Station
Overcast Overcast  
Wind Chill: 33°   Ceiling: 8000
Heat Index: 33°   Visibility: 10mi
Dew Point: 28°   Wind: 3mph
Humidity: 80%   Direction: 360°N
Pressure: 30.29"   Gusts: NA
Location:  37.71°N, 76.38°W
Report Text: KW75 210635Z AUTO 36003KT 10SM OVC080 01/M02 A3029 RMK AO1 T00071024
Loading
Personal Weather Stations






























Interactive Weather Map New forecast layout! Learn more

10-Day Weather Forecast

Advertisements
Track Severe Weather on mobile